ヤクーツク の空港の天気 - METARとTAF

ヤクーツク空港 ( UEEE / YKS ) - ロシア ヤクーツク
飛行場実況気象(Metar)
観測時間12/14 15:00 YAKT (12/14 06:00 UTC)
風向・風速北 4m/s
視程5000m
天気現象弱い雪
なし
気温-29℃
湿度75%
気圧1009hPa
METARUEEE 140600Z 35004MPS 5000 -SN NSC M29/M32 Q1009 R23L/450155 NOSIG RMK QFE748
過去の天気等 Google飛行場航空写真 Wunderground天気予報

過去48時間のMETAR

飛行場予報(TAF)
発表時間: 12/14 14:00 YAKT (12/14 05:00 UTC)
予報対象時間: 14日15時 YAKT ~ 15日21時 YAKT
風向・風速北東 3m/s 瞬間風速 8m/s
視程3200m
天気現象弱い雪 低い地吹雪
全天の8割程度の雲 雲底高度 460m
全天を覆う雲 雲底高度 2130m
14日15時 YAKT ~ 15日9時 YAKT に一時的に
視程1500m
天気現象
全天を覆う雲 鉛直視程 150m
TAF UEEE 140500Z 1406/1512 04003G08MPS 3200 -SN DRSN BKN015 OVC070
TEMPO 1406/1424 1500 SN VV005